createdAt,value
2023-03-20T00:03:41.939Z,29.60
2023-03-20T00:08:45.945Z,27.80
2023-03-20T00:18:49.777Z,23.00
2023-03-20T00:23:51.293Z,23.40
2023-03-20T00:28:53.005Z,28.50
2023-03-20T00:33:57.508Z,30.40
2023-03-20T00:38:59.067Z,25.30
2023-03-20T00:44:05.238Z,25.00
2023-03-20T00:49:07.930Z,23.40
2023-03-20T00:54:14.304Z,28.00
2023-03-20T00:59:22.666Z,28.30
2023-03-20T01:04:24.522Z,25.60
2023-03-20T01:09:26.261Z,25.70
2023-03-20T01:14:27.816Z,27.80
2023-03-20T01:19:29.313Z,29.00
2023-03-20T01:24:30.945Z,23.80
2023-03-20T01:29:32.460Z,27.70
2023-03-20T01:34:33.975Z,32.20
2023-03-20T01:39:37.001Z,29.50
2023-03-20T01:44:38.830Z,23.60
2023-03-20T01:50:18.057Z,25.10
2023-03-20T01:55:21.129Z,26.60
2023-03-20T02:00:30.709Z,27.00
2023-03-20T02:05:33.247Z,27.40
2023-03-20T02:10:35.419Z,25.20
2023-03-20T02:15:55.819Z,31.20
2023-03-20T02:21:09.698Z,29.60
2023-03-20T02:26:22.661Z,26.30
2023-03-20T02:31:39.718Z,31.30
2023-03-20T02:37:18.772Z,24.90
2023-03-20T02:42:38.332Z,25.30
2023-03-20T02:47:48.864Z,44.20
2023-03-20T02:52:53.701Z,38.80
2023-03-20T02:57:58.641Z,38.50
2023-03-20T03:03:12.174Z,41.30
2023-03-20T03:08:19.442Z,42.30
2023-03-20T03:13:27.577Z,41.50
2023-03-20T03:18:30.502Z,36.10
2023-03-20T03:23:40.220Z,42.80
2023-03-20T03:28:47.544Z,37.20
2023-03-20T03:33:52.613Z,34.80
2023-03-20T03:38:59.971Z,30.70
2023-03-20T03:44:04.572Z,36.20
2023-03-20T03:49:08.714Z,36.90
2023-03-20T03:54:34.261Z,50.50
2023-03-20T03:59:40.017Z,44.60
2023-03-20T04:04:48.001Z,54.60
2023-03-20T04:09:49.552Z,47.90
2023-03-20T04:14:51.100Z,41.80
2023-03-20T04:19:52.601Z,41.70
2023-03-20T04:24:54.118Z,38.90
2023-03-20T04:29:56.632Z,24.10
2023-03-20T04:34:58.172Z,35.40
2023-03-20T04:39:59.686Z,39.10
2023-03-20T04:45:01.236Z,31.20
2023-03-20T04:50:03.222Z,32.80
2023-03-20T04:55:05.609Z,28.80
2023-03-20T05:00:07.985Z,32.10
2023-03-20T05:05:09.766Z,33.20
2023-03-20T05:10:11.797Z,33.60
2023-03-20T05:15:13.719Z,37.10
2023-03-20T05:20:16.006Z,44.20
2023-03-20T05:25:17.871Z,44.30
2023-03-20T05:30:26.242Z,44.60
2023-03-20T05:35:27.842Z,47.40
2023-03-20T05:40:29.313Z,43.40
2023-03-20T05:45:31.132Z,42.00
2023-03-20T05:50:32.625Z,44.00
2023-03-20T05:55:34.699Z,45.50
2023-03-20T06:00:36.492Z,42.60
2023-03-20T06:05:38.368Z,48.10
2023-03-20T06:10:40.078Z,46.70
2023-03-20T06:15:41.778Z,46.10
2023-03-20T06:20:43.380Z,44.40
2023-03-20T06:25:44.955Z,42.80
2023-03-20T06:30:46.532Z,45.40
2023-03-20T06:35:48.596Z,43.30
2023-03-20T06:40:50.537Z,43.10
2023-03-20T06:45:52.828Z,45.80
2023-03-20T06:50:55.963Z,38.10
2023-03-20T06:55:57.548Z,39.80
2023-03-20T07:00:59.080Z,39.00
2023-03-20T07:06:00.999Z,37.90
2023-03-20T07:11:06.558Z,37.20
2023-03-20T07:16:09.419Z,42.30
2023-03-20T07:21:17.285Z,53.80
2023-03-20T07:26:18.791Z,42.40
2023-03-20T07:31:23.211Z,41.10
2023-03-20T07:36:24.934Z,36.00
2023-03-20T07:41:26.432Z,40.20
2023-03-20T07:46:28.231Z,35.10
2023-03-20T07:51:29.858Z,35.80
2023-03-20T07:56:31.361Z,33.40
2023-03-20T08:01:33.342Z,35.70
2023-03-20T08:06:34.938Z,38.20
2023-03-20T08:11:38.002Z,43.30
2023-03-20T08:16:39.650Z,34.80
2023-03-20T08:21:41.529Z,35.60
2023-03-20T08:26:44.404Z,33.60
2023-03-20T08:31:46.979Z,29.60
2023-03-20T08:36:48.452Z,30.20
2023-03-20T08:41:50.010Z,30.20
2023-03-20T08:46:51.502Z,28.10
2023-03-20T08:51:53.009Z,29.60
2023-03-20T08:56:54.503Z,29.00
2023-03-20T09:01:56.523Z,27.80
2023-03-20T09:07:00.131Z,21.60
2023-03-20T09:12:01.752Z,21.90
2023-03-20T09:17:03.322Z,24.70
2023-03-20T09:22:05.144Z,19.10
2023-03-20T09:27:07.768Z,36.80
2023-03-20T09:32:14.602Z,18.20
2023-03-20T09:37:16.136Z,14.70
2023-03-20T09:42:36.264Z,24.60
2023-03-20T09:47:52.736Z,24.30
2023-03-20T09:53:17.276Z,20.50
2023-03-20T09:58:24.812Z,21.60
2023-03-20T10:03:45.787Z,21.20
2023-03-20T10:08:47.439Z,21.00
2023-03-20T10:14:23.042Z,22.10
2023-03-20T10:19:27.672Z,22.80
2023-03-20T10:24:33.938Z,18.50
2023-03-20T10:30:05.256Z,17.10
2023-03-20T10:35:30.269Z,16.50
2023-03-20T10:40:42.520Z,18.50
2023-03-20T10:45:52.700Z,15.10
2023-03-20T10:50:58.792Z,23.70
2023-03-20T10:56:11.942Z,16.00
2023-03-20T11:01:13.614Z,22.60
2023-03-20T11:06:20.605Z,22.40
2023-03-20T11:11:25.575Z,19.50
2023-03-20T11:16:37.111Z,21.40
2023-03-20T11:21:56.142Z,17.00
2023-03-20T11:27:06.708Z,19.50
2023-03-20T11:32:14.228Z,20.80
2023-03-20T11:37:29.011Z,16.80
2023-03-20T11:42:30.905Z,14.30
2023-03-20T11:47:35.649Z,17.90
2023-03-20T11:52:39.809Z,15.50
2023-03-20T11:57:42.785Z,21.70
2023-03-20T12:07:50.713Z,29.70
2023-03-20T12:13:00.439Z,22.00
2023-03-20T12:18:08.857Z,28.50
2023-03-20T12:23:13.694Z,23.50
2023-03-20T12:28:42.897Z,29.20
2023-03-20T12:34:01.457Z,23.00
2023-03-20T12:39:07.087Z,20.70
2023-03-20T12:44:35.522Z,15.70
2023-03-20T12:49:46.478Z,17.90
2023-03-20T12:55:29.729Z,12.60
2023-03-20T13:00:42.629Z,18.80
2023-03-20T13:05:56.254Z,19.60
2023-03-20T13:11:07.038Z,20.60
2023-03-20T13:16:31.554Z,17.40
2023-03-20T13:22:06.634Z,20.80
2023-03-20T13:27:14.452Z,17.60
2023-03-20T13:32:30.798Z,18.20
2023-03-20T13:37:40.846Z,22.90
2023-03-20T13:43:25.534Z,21.80
2023-03-20T13:48:37.732Z,13.90
2023-03-20T13:53:45.890Z,17.20
2023-03-20T13:59:05.406Z,10.70
2023-03-20T14:04:14.266Z,12.20
2023-03-20T14:09:30.701Z,14.30
2023-03-20T14:14:52.394Z,17.00
2023-03-20T14:19:55.920Z,30.70
2023-03-20T14:25:04.756Z,29.10
2023-03-20T14:30:38.695Z,21.10
2023-03-20T14:35:46.489Z,30.50
2023-03-20T14:40:57.118Z,21.10
2023-03-20T14:46:21.188Z,21.80
2023-03-20T14:51:44.154Z,21.30
2023-03-20T14:56:45.689Z,58.70
2023-03-20T15:01:53.314Z,31.70
2023-03-20T15:07:02.175Z,28.90
2023-03-20T15:12:04.607Z,49.70
2023-03-20T15:17:07.373Z,27.70
2023-03-20T15:22:17.332Z,45.80
2023-03-20T15:27:19.281Z,27.80
2023-03-20T15:32:21.731Z,38.90
2023-03-20T15:37:25.561Z,32.50
2023-03-20T15:42:27.670Z,26.20
2023-03-20T15:47:30.411Z,25.30
2023-03-20T15:52:53.082Z,19.20
2023-03-20T15:58:00.897Z,26.30
2023-03-20T16:03:06.637Z,23.90
2023-03-20T16:08:32.978Z,47.30
2023-03-20T16:13:41.542Z,37.80
2023-03-20T16:18:46.480Z,38.10
2023-03-20T16:23:52.665Z,18.50
2023-03-20T16:28:58.701Z,17.60
2023-03-20T16:34:06.567Z,19.80
2023-03-20T16:39:15.995Z,17.00
2023-03-20T16:44:20.845Z,19.10
2023-03-20T16:49:37.211Z,17.10
2023-03-20T16:54:39.288Z,15.60
2023-03-20T16:59:41.334Z,14.50
2023-03-20T17:04:43.268Z,25.50
2023-03-20T17:09:57.475Z,34.50
2023-03-20T17:14:59.047Z,41.10
2023-03-20T17:20:00.952Z,30.20
2023-03-20T17:25:02.434Z,28.40
2023-03-20T17:30:06.278Z,26.30
2023-03-20T17:35:08.590Z,26.20
2023-03-20T17:40:36.745Z,24.60
2023-03-20T17:45:38.894Z,21.10
2023-03-20T17:50:40.485Z,24.00
2023-03-20T17:55:42.566Z,36.80
2023-03-20T18:00:45.384Z,29.30
2023-03-20T18:05:50.155Z,55.50
2023-03-20T18:10:53.507Z,38.10
2023-03-20T18:20:59.471Z,47.70
2023-03-20T18:26:01.146Z,60.20
2023-03-20T18:31:02.671Z,51.50
2023-03-20T18:36:04.943Z,46.70
2023-03-20T18:41:07.445Z,65.40
2023-03-20T18:46:23.334Z,71.20
2023-03-20T18:51:25.374Z,78.00
2023-03-20T18:56:28.477Z,69.60
2023-03-20T19:01:30.029Z,70.60
2023-03-20T19:06:32.395Z,56.80
2023-03-20T19:11:34.111Z,75.70
2023-03-20T19:16:37.865Z,47.80
2023-03-20T19:21:39.558Z,55.70
2023-03-20T19:26:42.209Z,55.70
2023-03-20T19:31:44.141Z,54.50
2023-03-20T19:36:48.969Z,64.00
2023-03-20T19:41:51.792Z,72.00
2023-03-20T19:46:53.398Z,60.60
2023-03-20T19:51:55.071Z,113.00
2023-03-20T19:56:56.601Z,70.10
2023-03-20T20:01:58.940Z,99.30
2023-03-20T20:07:36.284Z,68.00
2023-03-20T20:12:22.401Z,91.10
2023-03-20T20:17:24.387Z,67.70
2023-03-20T20:22:27.293Z,78.20
2023-03-20T20:27:29.669Z,79.10
2023-03-20T20:32:31.516Z,83.80
2023-03-20T20:38:25.195Z,86.30
2023-03-20T20:43:01.905Z,68.90
2023-03-20T20:48:06.460Z,65.80
2023-03-20T20:53:08.390Z,64.30
2023-03-20T20:58:11.342Z,54.10
2023-03-20T21:03:12.904Z,60.30
2023-03-20T21:08:15.228Z,58.90
2023-03-20T21:13:16.781Z,55.50
2023-03-20T21:18:18.294Z,42.60
2023-03-20T21:23:19.817Z,44.70
2023-03-20T21:28:21.341Z,41.70
2023-03-20T21:33:23.929Z,35.10
2023-03-20T21:43:47.753Z,35.60
2023-03-20T21:49:41.179Z,38.60
2023-03-20T22:00:14.193Z,36.70
2023-03-20T22:16:17.136Z,35.90
2023-03-20T22:42:55.810Z,23.70
2023-03-20T22:47:54.196Z,28.80
2023-03-20T22:52:56.256Z,28.30
2023-03-20T22:58:06.813Z,27.30
2023-03-20T23:03:19.984Z,25.80
2023-03-20T23:08:28.122Z,23.70
2023-03-20T23:13:29.742Z,24.00
2023-03-20T23:18:31.489Z,27.00
2023-03-20T23:23:33.167Z,22.40
2023-03-20T23:28:36.717Z,17.80
2023-03-20T23:33:39.284Z,20.70
2023-03-20T23:38:41.426Z,23.40
2023-03-20T23:43:42.948Z,23.30
2023-03-20T23:48:44.453Z,18.00
2023-03-20T23:53:46.053Z,16.50
2023-03-20T23:58:58.283Z,28.30
